createdAt,value
2023-07-15T00:01:39.347Z,20.99
2023-07-15T00:04:14.525Z,20.90
2023-07-15T00:06:43.100Z,20.84
2023-07-15T00:09:11.859Z,20.77
2023-07-15T00:11:46.451Z,20.73
2023-07-15T00:14:23.919Z,20.62
2023-07-15T00:16:52.755Z,20.56
2023-07-15T00:19:21.674Z,20.51
2023-07-15T00:21:51.053Z,20.52
2023-07-15T00:24:19.605Z,20.49
2023-07-15T00:26:49.827Z,20.47
2023-07-15T00:29:18.762Z,20.43
2023-07-15T00:31:46.827Z,20.37
2023-07-15T00:34:15.795Z,20.31
2023-07-15T00:36:43.760Z,20.31
2023-07-15T00:39:12.069Z,20.40
2023-07-15T00:41:40.050Z,20.40
2023-07-15T00:44:16.591Z,20.40
2023-07-15T00:47:14.951Z,20.33
2023-07-15T00:49:43.744Z,20.26
2023-07-15T00:52:16.809Z,20.23
2023-07-15T00:54:48.292Z,20.23
2023-07-15T00:57:20.256Z,20.35
2023-07-15T00:59:50.044Z,20.43
2023-07-15T01:02:18.500Z,20.47
2023-07-15T01:04:48.263Z,20.45
2023-07-15T01:07:17.610Z,20.40
2023-07-15T01:09:46.552Z,20.33
2023-07-15T01:12:15.140Z,20.28
2023-07-15T01:14:45.098Z,20.21
2023-07-15T01:17:13.200Z,20.16
2023-07-15T01:19:41.288Z,20.09
2023-07-15T01:22:10.016Z,20.03
2023-07-15T01:24:38.604Z,19.98
2023-07-15T01:27:10.170Z,19.91
2023-07-15T01:29:38.625Z,19.82
2023-07-15T01:32:07.670Z,19.82
2023-07-15T01:34:35.648Z,19.74
2023-07-15T01:37:03.651Z,19.74
2023-07-15T01:39:31.940Z,19.70
2023-07-15T01:41:59.918Z,19.63
2023-07-15T01:44:27.959Z,19.62
2023-07-15T01:46:56.021Z,19.60
2023-07-15T01:49:23.988Z,19.56
2023-07-15T01:51:51.903Z,19.60
2023-07-15T01:54:19.856Z,19.56
2023-07-15T01:56:48.549Z,19.51
2023-07-15T01:59:16.518Z,19.59
2023-07-15T02:01:44.463Z,19.53
2023-07-15T02:04:12.424Z,19.61
2023-07-15T02:06:40.370Z,19.63
2023-07-15T02:09:10.463Z,19.65
2023-07-15T02:11:38.433Z,19.69
2023-07-15T02:14:06.760Z,19.65
2023-07-15T02:16:34.778Z,19.75
2023-07-15T02:19:02.821Z,19.70
2023-07-15T02:21:30.910Z,19.64
2023-07-15T02:23:58.843Z,19.58
2023-07-15T02:26:26.717Z,19.54
2023-07-15T02:28:55.452Z,19.48
2023-07-15T02:31:23.746Z,19.43
2023-07-15T02:33:51.677Z,19.59
2023-07-15T02:36:21.077Z,19.75
2023-07-15T02:38:49.028Z,19.70
2023-07-15T02:41:17.002Z,19.69
2023-07-15T02:43:44.950Z,19.72
2023-07-15T02:46:13.179Z,19.78
2023-07-15T02:48:41.226Z,19.74
2023-07-15T02:51:09.221Z,19.72
2023-07-15T02:53:37.394Z,19.62
2023-07-15T02:56:05.875Z,19.51
2023-07-15T02:58:33.997Z,19.53
2023-07-15T03:01:01.935Z,19.47
2023-07-15T03:03:29.905Z,19.34
2023-07-15T03:05:58.421Z,19.28
2023-07-15T03:08:26.777Z,19.22
2023-07-15T03:10:55.888Z,19.13
2023-07-15T03:13:24.423Z,19.02
2023-07-15T03:15:52.354Z,18.97
2023-07-15T03:18:20.230Z,18.98
2023-07-15T03:20:48.090Z,18.93
2023-07-15T03:23:16.057Z,18.93
2023-07-15T03:25:44.023Z,19.01
2023-07-15T03:28:12.309Z,18.94
2023-07-15T03:30:40.299Z,18.91
2023-07-15T03:33:08.321Z,18.99
2023-07-15T03:35:36.439Z,18.97
2023-07-15T03:38:04.612Z,19.01
2023-07-15T03:40:32.579Z,18.96
2023-07-15T03:43:00.464Z,19.02
2023-07-15T03:45:28.471Z,19.07
2023-07-15T03:47:56.484Z,19.01
2023-07-15T03:50:24.361Z,19.04
2023-07-15T03:52:52.255Z,19.02
2023-07-15T03:55:20.277Z,19.12
2023-07-15T03:57:48.219Z,19.13
2023-07-15T04:00:19.636Z,19.05
2023-07-15T04:02:48.839Z,19.23
2023-07-15T04:05:16.876Z,19.28
2023-07-15T04:07:44.797Z,19.29
2023-07-15T04:10:13.759Z,19.35
2023-07-15T04:12:41.953Z,19.25
2023-07-15T04:15:10.503Z,19.23
2023-07-15T04:17:38.465Z,19.23
2023-07-15T04:20:13.348Z,19.41
2023-07-15T04:22:41.721Z,19.40
2023-07-15T04:25:10.068Z,19.46
2023-07-15T04:27:37.987Z,19.44
2023-07-15T04:30:07.790Z,19.49
2023-07-15T04:32:35.774Z,19.53
2023-07-15T04:35:04.615Z,19.63
2023-07-15T04:37:33.020Z,19.58
2023-07-15T04:40:00.991Z,19.73
2023-07-15T04:42:28.960Z,19.73
2023-07-15T04:44:56.967Z,19.65
2023-07-15T04:47:24.898Z,19.56
2023-07-15T04:49:52.798Z,19.56
2023-07-15T04:52:20.776Z,19.69
2023-07-15T04:54:48.734Z,19.65
2023-07-15T04:57:19.369Z,19.62
2023-07-15T04:59:48.514Z,19.71
2023-07-15T05:02:16.593Z,19.73
2023-07-15T05:04:44.626Z,19.63
2023-07-15T05:07:12.741Z,19.58
2023-07-15T05:09:40.694Z,19.55
2023-07-15T05:12:09.151Z,19.67
2023-07-15T05:14:37.278Z,19.67
2023-07-15T05:17:08.418Z,19.63
2023-07-15T05:19:36.516Z,19.56
2023-07-15T05:22:04.688Z,19.64
2023-07-15T05:24:33.486Z,19.71
2023-07-15T05:27:01.433Z,19.73
2023-07-15T05:29:29.488Z,19.75
2023-07-15T05:31:57.458Z,19.92
2023-07-15T05:34:25.473Z,19.98
2023-07-15T05:36:53.508Z,19.99
2023-07-15T05:39:23.403Z,20.11
2023-07-15T05:41:51.885Z,20.25
2023-07-15T05:44:19.773Z,20.27
2023-07-15T05:46:47.686Z,20.32
2023-07-15T05:49:15.669Z,20.41
2023-07-15T05:51:43.666Z,20.47
2023-07-15T05:54:11.718Z,20.47
2023-07-15T05:56:39.860Z,20.55
2023-07-15T05:59:07.809Z,20.64
2023-07-15T06:01:35.809Z,20.76
2023-07-15T06:04:03.819Z,20.97
2023-07-15T06:06:31.739Z,21.11
2023-07-15T06:08:59.825Z,21.13
2023-07-15T06:11:27.784Z,21.13
2023-07-15T06:13:55.725Z,21.14
2023-07-15T06:16:24.157Z,21.13
2023-07-15T06:18:52.097Z,21.14
2023-07-15T06:21:20.064Z,21.15
2023-07-15T06:23:48.136Z,21.14
2023-07-15T06:26:16.355Z,21.19
2023-07-15T06:28:44.463Z,21.23
2023-07-15T06:31:14.544Z,21.26
2023-07-15T06:33:46.982Z,21.34
2023-07-15T06:36:15.290Z,21.40
2023-07-15T06:38:43.213Z,21.48
2023-07-15T06:41:11.166Z,21.58
2023-07-15T06:43:39.194Z,21.69
2023-07-15T06:46:08.829Z,21.80
2023-07-15T06:48:37.055Z,21.92
2023-07-15T06:51:05.133Z,22.02
2023-07-15T06:53:33.100Z,22.12
2023-07-15T06:56:14.373Z,22.21
2023-07-15T06:58:46.762Z,22.30
2023-07-15T07:01:15.201Z,22.40
2023-07-15T07:03:43.630Z,22.50
2023-07-15T07:06:11.680Z,22.57
2023-07-15T07:08:39.719Z,22.65
2023-07-15T07:11:07.654Z,22.69
2023-07-15T07:13:35.588Z,22.71
2023-07-15T07:16:03.555Z,22.74
2023-07-15T07:18:31.551Z,22.79
2023-07-15T07:21:00.772Z,22.82
2023-07-15T07:23:29.267Z,22.85
2023-07-15T07:25:57.266Z,22.87
2023-07-15T07:28:39.112Z,22.90
2023-07-15T07:31:07.221Z,22.94
2023-07-15T07:33:39.037Z,22.94
2023-07-15T07:36:07.181Z,22.95
2023-07-15T07:38:35.321Z,23.00
2023-07-15T07:41:11.374Z,23.00
2023-07-15T07:43:42.987Z,23.06
2023-07-15T07:46:13.224Z,23.14
2023-07-15T07:48:44.150Z,23.23
2023-07-15T07:51:12.073Z,23.39
2023-07-15T07:53:40.275Z,23.51
2023-07-15T07:56:08.264Z,23.60
2023-07-15T07:58:36.403Z,23.70
2023-07-15T08:01:04.826Z,23.79
2023-07-15T08:03:33.037Z,23.91
2023-07-15T08:06:02.258Z,24.03
2023-07-15T08:08:30.345Z,24.10
2023-07-15T08:10:58.543Z,24.21
2023-07-15T08:13:26.637Z,24.31
2023-07-15T08:15:54.666Z,24.43
2023-07-15T08:18:22.899Z,24.54
2023-07-15T08:20:51.012Z,24.66
2023-07-15T08:23:19.922Z,24.80
2023-07-15T08:25:48.328Z,24.90
2023-07-15T08:28:16.327Z,25.02
2023-07-15T08:30:44.381Z,25.15
2023-07-15T08:33:12.387Z,25.27
2023-07-15T08:35:40.491Z,25.39
2023-07-15T08:38:08.423Z,25.50
2023-07-15T08:40:37.640Z,25.63
2023-07-15T08:43:06.683Z,25.73
2023-07-15T08:45:36.473Z,25.83
2023-07-15T08:48:04.710Z,25.92
2023-07-15T08:50:35.855Z,26.06
2023-07-15T08:53:04.602Z,26.19
2023-07-15T08:55:33.512Z,26.31
2023-07-15T08:58:02.213Z,26.40
2023-07-15T09:00:30.501Z,26.48
2023-07-15T09:02:58.683Z,26.57
2023-07-15T09:05:26.713Z,26.66
2023-07-15T09:07:59.402Z,26.74
2023-07-15T09:10:30.549Z,26.81
2023-07-15T09:12:58.600Z,26.87
2023-07-15T09:15:26.701Z,26.93
2023-07-15T09:17:56.388Z,27.00
2023-07-15T09:20:25.983Z,27.07
2023-07-15T09:22:59.364Z,27.14
2023-07-15T09:25:29.539Z,27.18
2023-07-15T09:27:57.716Z,27.23
2023-07-15T09:30:25.816Z,27.29
2023-07-15T09:39:58.681Z,27.45
2023-07-15T09:42:29.366Z,27.52
2023-07-15T09:44:58.090Z,27.56
2023-07-15T09:47:30.467Z,27.63
2023-07-15T09:49:58.428Z,27.70
2023-07-15T09:52:26.724Z,27.77
2023-07-15T09:54:55.428Z,27.82
2023-07-15T09:57:25.388Z,27.87
2023-07-15T09:59:55.440Z,27.93
2023-07-15T10:02:44.667Z,27.98
2023-07-15T10:05:15.797Z,28.08
2023-07-15T10:07:44.219Z,28.14
2023-07-15T10:10:12.804Z,28.24
2023-07-15T10:12:41.716Z,28.33
2023-07-15T10:15:10.571Z,28.39
2023-07-15T10:17:39.611Z,28.46
2023-07-15T10:20:20.676Z,28.51
2023-07-15T10:22:50.655Z,28.60
2023-07-15T10:25:18.833Z,28.69
2023-07-15T10:27:46.827Z,28.77
2023-07-15T10:30:18.018Z,28.83
2023-07-15T10:33:11.731Z,28.87
2023-07-15T10:35:42.530Z,28.95
2023-07-15T10:38:31.430Z,29.01
2023-07-15T10:41:02.599Z,29.05
2023-07-15T10:43:36.672Z,29.10
2023-07-15T10:46:16.458Z,29.16
2023-07-15T10:48:44.788Z,29.19
2023-07-15T10:51:14.122Z,29.19
2023-07-15T10:53:42.504Z,29.23
2023-07-15T10:56:13.322Z,29.27
2023-07-15T10:58:45.086Z,29.36
2023-07-15T11:01:14.944Z,29.44
2023-07-15T11:03:44.547Z,29.51
2023-07-15T11:06:14.447Z,29.59
2023-07-15T11:08:43.394Z,29.66
2023-07-15T11:11:12.763Z,29.76
2023-07-15T11:13:43.400Z,29.83
2023-07-15T11:16:11.726Z,29.87
2023-07-15T11:18:39.920Z,29.83
2023-07-15T11:21:08.634Z,29.83
2023-07-15T11:23:36.818Z,29.82
2023-07-15T11:26:11.417Z,29.83
2023-07-15T11:28:52.304Z,29.86
2023-07-15T11:31:28.502Z,29.86
2023-07-15T11:33:59.955Z,29.85
2023-07-15T11:36:27.870Z,29.87
2023-07-15T11:38:55.861Z,29.92
2023-07-15T11:41:27.555Z,30.02
2023-07-15T11:43:56.126Z,30.12
2023-07-15T11:46:25.139Z,30.22
2023-07-15T11:48:53.365Z,30.30
2023-07-15T11:51:23.900Z,30.33
2023-07-15T11:53:55.960Z,30.36
2023-07-15T11:56:44.870Z,30.45
2023-07-15T11:59:14.959Z,30.53
2023-07-15T12:01:43.620Z,30.66
2023-07-15T12:04:16.241Z,30.78
2023-07-15T12:06:56.381Z,30.90
2023-07-15T12:09:25.358Z,31.05
2023-07-15T12:11:53.796Z,31.15
2023-07-15T12:14:22.401Z,31.27
2023-07-15T12:16:53.611Z,31.33
2023-07-15T12:19:22.153Z,31.43
2023-07-15T12:21:50.110Z,31.51
2023-07-15T12:24:18.204Z,31.54
2023-07-15T12:26:46.291Z,31.61
2023-07-15T12:29:14.302Z,31.69
2023-07-15T12:31:42.334Z,31.75
2023-07-15T12:34:10.240Z,31.79
2023-07-15T12:36:38.283Z,31.83
2023-07-15T12:39:06.792Z,31.83
2023-07-15T12:41:34.787Z,31.79
2023-07-15T12:44:02.770Z,31.82
2023-07-15T12:46:30.736Z,31.94
2023-07-15T12:48:58.795Z,32.04
2023-07-15T12:51:27.387Z,32.12
2023-07-15T12:53:55.348Z,32.21
2023-07-15T12:56:24.229Z,32.29
2023-07-15T12:58:52.228Z,32.35
2023-07-15T13:01:20.553Z,32.42
2023-07-15T13:03:48.630Z,32.46
2023-07-15T13:06:17.162Z,32.48
2023-07-15T13:08:45.318Z,32.53
2023-07-15T13:11:13.484Z,32.59
2023-07-15T13:13:41.672Z,32.62
2023-07-15T13:16:09.766Z,32.61
2023-07-15T13:18:37.819Z,32.64
2023-07-15T13:21:05.779Z,32.62
2023-07-15T13:23:33.881Z,32.62
2023-07-15T13:26:01.962Z,32.64
2023-07-15T13:28:29.921Z,32.63
2023-07-15T13:30:57.985Z,32.64
2023-07-15T13:33:25.953Z,32.65
2023-07-15T13:35:55.357Z,32.64
2023-07-15T13:38:23.352Z,32.64
2023-07-15T13:40:51.531Z,32.64
2023-07-15T13:43:19.510Z,32.64
2023-07-15T13:45:48.290Z,32.60
2023-07-15T13:48:16.252Z,32.58
2023-07-15T13:50:44.227Z,32.56
2023-07-15T13:53:12.193Z,32.53
2023-07-15T13:55:40.094Z,32.51
2023-07-15T13:58:08.111Z,32.50
2023-07-15T14:00:36.266Z,32.51
2023-07-15T14:03:04.679Z,32.52
2023-07-15T14:05:32.719Z,32.50
2023-07-15T14:08:00.691Z,32.47
2023-07-15T14:10:29.560Z,32.42
2023-07-15T14:12:57.661Z,32.38
2023-07-15T14:15:25.674Z,32.29
2023-07-15T14:17:53.597Z,32.21
2023-07-15T14:20:21.695Z,32.16
2023-07-15T14:22:50.603Z,32.13
2023-07-15T14:25:20.330Z,32.13
2023-07-15T14:27:48.375Z,32.11
2023-07-15T14:30:16.471Z,32.09
2023-07-15T14:32:44.489Z,32.05
2023-07-15T14:35:12.473Z,32.01
2023-07-15T14:37:40.484Z,31.96
2023-07-15T14:40:09.487Z,31.91
2023-07-15T14:42:39.857Z,31.85
2023-07-15T14:45:08.776Z,31.78
2023-07-15T14:47:38.104Z,31.72
2023-07-15T14:50:07.134Z,31.64
2023-07-15T14:52:35.235Z,31.55
2023-07-15T14:55:03.267Z,31.49
2023-07-15T14:57:31.254Z,31.41
2023-07-15T14:59:59.169Z,31.35
2023-07-15T15:02:27.162Z,31.30
2023-07-15T15:04:55.116Z,31.27
2023-07-15T15:07:23.451Z,31.24
2023-07-15T15:09:51.517Z,31.21
2023-07-15T15:12:19.484Z,31.19
2023-07-15T15:14:47.458Z,31.15
2023-07-15T15:17:16.170Z,31.08
2023-07-15T15:19:44.116Z,31.02
2023-07-15T15:22:12.052Z,30.92
2023-07-15T15:24:39.979Z,30.87
2023-07-15T15:27:08.241Z,30.78
2023-07-15T15:29:36.308Z,30.72
2023-07-15T15:32:04.343Z,30.68
2023-07-15T15:34:32.482Z,30.68
2023-07-15T15:37:00.469Z,30.65
2023-07-15T15:39:28.419Z,30.64
2023-07-15T15:41:56.458Z,30.61
2023-07-15T15:44:24.662Z,30.58
2023-07-15T15:46:52.804Z,30.58
2023-07-15T15:49:21.293Z,30.61
2023-07-15T15:51:49.265Z,30.60
2023-07-15T15:54:17.232Z,30.58
2023-07-15T15:56:45.209Z,30.57
2023-07-15T15:59:13.174Z,30.49
2023-07-15T16:01:41.139Z,30.43
2023-07-15T16:04:09.192Z,30.34
2023-07-15T16:06:38.276Z,30.34
2023-07-15T16:09:14.310Z,30.44
2023-07-15T16:11:51.777Z,30.47
2023-07-15T16:14:19.749Z,30.49
2023-07-15T16:16:52.062Z,30.55
2023-07-15T16:19:24.539Z,30.69
2023-07-15T16:21:53.586Z,30.82
2023-07-15T16:24:26.617Z,30.99
2023-07-15T16:26:55.598Z,31.14
2023-07-15T16:29:24.404Z,31.29
2023-07-15T16:31:52.912Z,31.40
2023-07-15T16:34:24.949Z,31.52
2023-07-15T16:36:52.879Z,31.65
2023-07-15T16:39:20.836Z,31.75
2023-07-15T16:41:48.823Z,31.76
2023-07-15T16:44:16.740Z,31.80
2023-07-15T16:46:44.640Z,31.86
2023-07-15T16:49:12.683Z,31.89
2023-07-15T16:51:41.410Z,31.91
2023-07-15T16:54:09.459Z,31.96
2023-07-15T16:56:37.491Z,32.01
2023-07-15T16:59:05.852Z,32.06
2023-07-15T17:01:33.851Z,32.10
2023-07-15T17:04:01.892Z,32.15
2023-07-15T17:06:29.801Z,32.17
2023-07-15T17:08:57.731Z,32.21
2023-07-15T17:11:25.636Z,32.23
2023-07-15T17:13:53.579Z,32.21
2023-07-15T17:16:21.633Z,32.23
2023-07-15T17:18:49.604Z,32.26
2023-07-15T17:21:17.569Z,32.33
2023-07-15T17:23:45.660Z,32.37
2023-07-15T17:26:13.519Z,32.41
2023-07-15T17:28:41.468Z,32.40
2023-07-15T17:31:10.450Z,32.42
2023-07-15T17:33:38.419Z,32.43
2023-07-15T17:36:06.589Z,32.46
2023-07-15T17:38:34.511Z,32.44
2023-07-15T17:41:02.491Z,32.40
2023-07-15T17:43:30.416Z,32.33
2023-07-15T17:45:58.425Z,32.24
2023-07-15T17:48:26.334Z,32.12
2023-07-15T17:50:54.287Z,32.00
2023-07-15T17:53:22.313Z,31.88
2023-07-15T17:55:53.244Z,31.74
2023-07-15T17:58:21.298Z,31.61
2023-07-15T18:00:49.717Z,31.48
2023-07-15T18:03:17.821Z,31.35
2023-07-15T18:05:45.995Z,31.19
2023-07-15T18:08:17.076Z,31.02
2023-07-15T18:10:45.877Z,30.88
2023-07-15T18:13:13.822Z,30.74
2023-07-15T18:15:41.832Z,30.60
2023-07-15T18:18:10.574Z,30.46
2023-07-15T18:20:38.607Z,30.31
2023-07-15T18:23:06.633Z,30.20
2023-07-15T18:25:34.612Z,30.06
2023-07-15T18:28:02.536Z,29.98
2023-07-15T18:30:30.378Z,29.86
2023-07-15T18:32:58.420Z,29.80
2023-07-15T18:35:26.509Z,29.73
2023-07-15T18:37:54.567Z,29.61
2023-07-15T18:40:22.597Z,29.53
2023-07-15T18:42:50.498Z,29.44
2023-07-15T18:45:21.514Z,29.36
2023-07-15T18:47:58.513Z,29.30
2023-07-15T18:50:26.468Z,29.22
2023-07-15T18:52:54.400Z,29.14
2023-07-15T18:55:22.297Z,29.04
2023-07-15T18:57:50.312Z,28.97
2023-07-15T19:00:18.252Z,28.92
2023-07-15T19:02:46.322Z,28.88
2023-07-15T19:05:14.433Z,28.83
2023-07-15T19:07:42.482Z,28.76
2023-07-15T19:10:10.961Z,28.69
2023-07-15T19:12:39.036Z,28.61
2023-07-15T19:15:07.414Z,28.49
2023-07-15T19:17:35.423Z,28.44
2023-07-15T19:20:03.410Z,28.34
2023-07-15T19:22:31.451Z,28.23
2023-07-15T19:24:59.384Z,28.14
2023-07-15T19:27:27.387Z,28.08
2023-07-15T19:29:55.314Z,28.02
2023-07-15T19:32:23.501Z,27.95
2023-07-15T19:34:51.573Z,27.91
2023-07-15T19:37:19.625Z,27.85
2023-07-15T19:39:49.817Z,27.78
2023-07-15T19:42:20.253Z,27.71
2023-07-15T19:44:48.161Z,27.65
2023-07-15T19:47:17.268Z,27.63
2023-07-15T19:49:45.442Z,27.55
2023-07-15T19:52:13.405Z,27.44
2023-07-15T19:54:41.341Z,27.36
2023-07-15T19:57:09.301Z,27.31
2023-07-15T19:59:37.360Z,27.24
2023-07-15T20:02:05.618Z,27.19
2023-07-15T20:04:33.632Z,27.11
2023-07-15T20:07:01.542Z,27.05
2023-07-15T20:09:29.574Z,26.97
2023-07-15T20:11:57.528Z,26.90
2023-07-15T20:14:25.499Z,26.84
2023-07-15T20:16:53.936Z,26.79
2023-07-15T20:19:22.934Z,26.75
2023-07-15T20:21:52.822Z,26.68
2023-07-15T20:24:20.792Z,26.65
2023-07-15T20:26:48.890Z,26.57
2023-07-15T20:29:16.857Z,26.48
2023-07-15T20:31:44.786Z,26.45
2023-07-15T20:34:12.910Z,26.40
2023-07-15T20:36:40.880Z,26.33
2023-07-15T20:39:08.932Z,26.24
2023-07-15T20:41:36.991Z,26.21
2023-07-15T20:44:05.133Z,26.18
2023-07-15T20:46:33.096Z,26.17
2023-07-15T20:49:01.195Z,26.12
2023-07-15T20:51:37.380Z,26.08
2023-07-15T20:54:05.672Z,26.02
2023-07-15T20:56:35.879Z,25.99
2023-07-15T20:59:04.190Z,25.95
2023-07-15T21:01:32.722Z,25.90
2023-07-15T21:04:00.815Z,25.85
2023-07-15T21:06:28.748Z,25.76
2023-07-15T21:08:59.503Z,25.64
2023-07-15T21:11:28.832Z,25.54
2023-07-15T21:13:56.774Z,25.47
2023-07-15T21:16:24.755Z,25.24
2023-07-15T21:18:52.763Z,24.97
2023-07-15T21:21:20.719Z,24.63
2023-07-15T21:23:48.725Z,24.36
2023-07-15T21:26:19.617Z,24.10
2023-07-15T21:28:47.653Z,23.77
2023-07-15T21:31:15.852Z,23.61
2023-07-15T21:33:46.756Z,23.45
2023-07-15T21:36:14.967Z,23.29
2023-07-15T21:38:44.144Z,23.18
2023-07-15T21:41:12.112Z,23.12
2023-07-15T21:43:40.039Z,23.06
2023-07-15T21:46:08.025Z,23.02
2023-07-15T21:48:35.982Z,22.97
2023-07-15T21:51:05.616Z,22.90
2023-07-15T21:53:33.645Z,22.82
2023-07-15T21:56:02.484Z,22.78
2023-07-15T21:58:30.345Z,22.74
2023-07-15T22:01:02.081Z,22.73
2023-07-15T22:03:30.127Z,22.71
2023-07-15T22:05:58.602Z,22.70
2023-07-15T22:08:26.806Z,22.67
2023-07-15T22:10:54.730Z,22.67
2023-07-15T22:13:22.702Z,22.65
2023-07-15T22:15:50.759Z,22.61
2023-07-15T22:18:34.252Z,22.60
2023-07-15T22:21:06.961Z,22.57
2023-07-15T22:23:34.942Z,22.50
2023-07-15T22:26:03.053Z,22.50
2023-07-15T22:28:31.098Z,22.48
2023-07-15T22:30:59.090Z,22.48
2023-07-15T22:33:27.155Z,22.46
2023-07-15T22:35:55.128Z,22.43
2023-07-15T22:38:23.268Z,22.41
2023-07-15T22:40:51.258Z,22.41
2023-07-15T22:43:20.909Z,22.41
2023-07-15T22:45:56.891Z,22.38
2023-07-15T22:48:27.748Z,22.37
2023-07-15T22:50:55.985Z,22.38
2023-07-15T22:53:26.415Z,22.38
2023-07-15T22:55:54.649Z,22.37
2023-07-15T22:58:22.993Z,22.38
2023-07-15T23:00:53.199Z,22.40
2023-07-15T23:03:23.158Z,22.34
2023-07-15T23:05:54.110Z,22.00
2023-07-15T23:08:22.410Z,21.57
2023-07-15T23:10:50.309Z,21.21
2023-07-15T23:13:18.272Z,21.00
2023-07-15T23:15:46.232Z,20.73
2023-07-15T23:18:14.208Z,20.54
2023-07-15T23:20:42.488Z,20.36
2023-07-15T23:23:17.105Z,20.27
2023-07-15T23:25:47.574Z,20.21
2023-07-15T23:28:16.081Z,20.16
2023-07-15T23:30:51.079Z,20.13
2023-07-15T23:33:19.136Z,20.08
2023-07-15T23:35:47.515Z,20.07
2023-07-15T23:38:15.456Z,20.01
2023-07-15T23:40:43.647Z,20.03
2023-07-15T23:43:12.922Z,20.02
2023-07-15T23:45:40.878Z,19.99
2023-07-15T23:48:09.123Z,19.96
2023-07-15T23:50:37.298Z,19.94
2023-07-15T23:53:05.462Z,19.92
2023-07-15T23:55:33.448Z,19.83
2023-07-15T23:58:02.334Z,19.83
